createdAt,value
2018-04-17T00:00:01.503Z,14.60
2018-04-17T00:02:29.791Z,14.40
2018-04-17T00:04:58.024Z,14.30
2018-04-17T00:07:25.617Z,14.30
2018-04-17T00:09:53.895Z,14.30
2018-04-17T00:12:22.170Z,14.30
2018-04-17T00:14:50.462Z,14.30
2018-04-17T00:17:17.944Z,14.20
2018-04-17T00:19:45.500Z,14.30
2018-04-17T00:22:13.064Z,14.20
2018-04-17T00:24:40.532Z,14.10
2018-04-17T00:27:08.074Z,14.20
2018-04-17T00:29:35.550Z,14.10
2018-04-17T00:32:03.048Z,14.10
2018-04-17T00:34:31.289Z,14.00
2018-04-17T00:36:58.784Z,14.00
2018-04-17T00:39:27.031Z,13.90
2018-04-17T00:41:54.512Z,14.00
2018-04-17T00:44:22.763Z,13.90
2018-04-17T00:46:50.250Z,13.90
2018-04-17T00:49:18.496Z,13.80
2018-04-17T00:51:46.024Z,13.80
2018-04-17T00:54:13.582Z,13.80
2018-04-17T00:56:41.144Z,13.70
2018-04-17T00:59:08.626Z,13.70
2018-04-17T01:01:36.124Z,13.80
2018-04-17T01:04:04.355Z,13.70
2018-04-17T01:06:31.953Z,13.70
2018-04-17T01:09:00.195Z,13.60
2018-04-17T01:11:27.735Z,13.60
2018-04-17T01:13:55.214Z,13.60
2018-04-17T01:16:22.905Z,13.50
2018-04-17T01:18:51.192Z,13.40
2018-04-17T01:21:19.446Z,13.40
2018-04-17T01:23:46.927Z,13.40
2018-04-17T01:26:15.279Z,13.30
2018-04-17T01:28:42.760Z,13.30
2018-04-17T01:31:11.059Z,13.20
2018-04-17T01:33:38.575Z,13.10
2018-04-17T01:36:06.075Z,13.00
2018-04-17T01:38:33.563Z,13.10
2018-04-17T01:41:01.092Z,13.10
2018-04-17T01:43:28.868Z,13.00
2018-04-17T01:45:56.393Z,12.80
2018-04-17T01:48:23.889Z,12.70
2018-04-17T01:50:51.357Z,12.70
2018-04-17T01:53:18.843Z,12.80
2018-04-17T01:55:46.423Z,12.80
2018-04-17T01:58:14.676Z,12.80
2018-04-17T02:00:42.145Z,12.70
2018-04-17T02:03:10.412Z,12.70
2018-04-17T02:05:37.887Z,12.70
2018-04-17T02:08:06.135Z,12.70
2018-04-17T02:10:33.649Z,12.70
2018-04-17T02:13:01.152Z,12.70
2018-04-17T02:15:29.383Z,12.30
2018-04-17T02:17:56.864Z,12.70
2018-04-17T02:20:24.322Z,12.50
2018-04-17T02:22:51.808Z,12.50
2018-04-17T02:25:19.273Z,12.60
2018-04-17T02:27:47.548Z,12.50
2018-04-17T02:30:15.829Z,12.40
2018-04-17T02:32:44.082Z,12.40
2018-04-17T02:35:11.551Z,12.40
2018-04-17T02:37:39.173Z,12.40
2018-04-17T02:40:06.711Z,12.30
2018-04-17T02:42:34.192Z,12.30
2018-04-17T02:45:01.663Z,12.20
2018-04-17T02:47:29.152Z,12.20
2018-04-17T02:49:57.416Z,12.20
2018-04-17T02:52:24.903Z,12.10
2018-04-17T02:54:52.367Z,12.10
2018-04-17T02:57:19.880Z,12.20
2018-04-17T02:59:47.447Z,12.10
2018-04-17T03:02:15.001Z,12.10
2018-04-17T03:04:42.464Z,12.10
2018-04-17T03:07:09.948Z,12.10
2018-04-17T03:09:37.423Z,12.00
2018-04-17T03:12:04.913Z,12.00
2018-04-17T03:14:32.375Z,12.00
2018-04-17T03:16:59.854Z,11.90
2018-04-17T03:19:28.124Z,11.90
2018-04-17T03:21:55.651Z,11.90
2018-04-17T03:24:23.141Z,11.90
2018-04-17T03:26:51.399Z,11.80
2018-04-17T03:29:18.856Z,11.80
2018-04-17T03:31:46.339Z,11.60
2018-04-17T03:34:14.568Z,11.50
2018-04-17T03:36:42.045Z,11.50
2018-04-17T03:39:09.680Z,11.50
2018-04-17T03:41:37.143Z,11.40
2018-04-17T03:44:04.644Z,11.30
2018-04-17T03:46:32.911Z,11.30
2018-04-17T03:49:00.399Z,11.30
2018-04-17T03:51:27.884Z,11.40
2018-04-17T03:53:55.383Z,11.40
2018-04-17T03:56:22.851Z,11.30
2018-04-17T03:58:51.162Z,11.20
2018-04-17T04:01:18.721Z,11.20
2018-04-17T04:03:46.208Z,11.20
2018-04-17T04:06:13.676Z,11.20
2018-04-17T04:08:41.192Z,11.30
2018-04-17T04:11:08.754Z,11.20
2018-04-17T04:13:36.241Z,11.10
2018-04-17T04:16:03.709Z,11.10
2018-04-17T04:18:43.088Z,11.10
2018-04-17T04:21:22.280Z,11.10
2018-04-17T04:24:01.752Z,11.10
2018-04-17T04:26:31.772Z,11.10
2018-04-17T04:29:00.022Z,11.20
2018-04-17T04:31:27.488Z,11.20
2018-04-17T04:33:55.803Z,11.10
2018-04-17T04:36:23.264Z,11.10
2018-04-17T04:38:51.717Z,11.10
2018-04-17T04:41:19.955Z,11.00
2018-04-17T04:43:47.439Z,11.00
2018-04-17T04:46:15.679Z,11.10
2018-04-17T04:48:43.173Z,11.10
2018-04-17T04:51:11.421Z,11.00
2018-04-17T04:53:39.244Z,11.00
2018-04-17T04:56:06.717Z,10.90
2018-04-17T04:58:34.268Z,10.90
2018-04-17T05:01:01.739Z,10.90
2018-04-17T05:06:03.177Z,10.90
2018-04-17T05:08:30.742Z,10.90
2018-04-17T05:10:58.267Z,11.00
2018-04-17T05:13:26.541Z,11.00
2018-04-17T05:15:54.000Z,11.00
2018-04-17T05:18:22.287Z,11.00
2018-04-17T05:20:50.559Z,11.00
2018-04-17T05:23:18.810Z,11.00
2018-04-17T05:25:46.291Z,11.00
2018-04-17T05:28:14.539Z,11.10
2018-04-17T05:30:42.093Z,11.10
2018-04-17T05:33:09.592Z,11.10
2018-04-17T05:35:37.818Z,11.20
2018-04-17T05:38:05.392Z,11.20
2018-04-17T05:40:32.884Z,11.20
2018-04-17T05:43:01.172Z,11.30
2018-04-17T05:45:28.654Z,11.30
2018-04-17T05:47:56.132Z,11.40
2018-04-17T05:50:23.609Z,11.40
2018-04-17T05:52:51.218Z,11.50
2018-04-17T05:55:18.726Z,11.40
2018-04-17T05:57:46.211Z,11.50
2018-04-17T06:00:14.437Z,11.50
2018-04-17T06:02:41.908Z,11.60
2018-04-17T06:05:09.402Z,11.60
2018-04-17T06:07:36.876Z,11.70
2018-04-17T06:10:04.393Z,11.70
2018-04-17T06:12:31.864Z,11.70
2018-04-17T06:15:00.129Z,11.80
2018-04-17T06:17:28.374Z,11.90
2018-04-17T06:19:56.008Z,11.80
2018-04-17T06:22:23.484Z,11.80
2018-04-17T06:24:50.984Z,12.00
2018-04-17T06:27:19.220Z,12.10
2018-04-17T06:29:46.725Z,12.10
2018-04-17T06:32:15.007Z,12.10
2018-04-17T06:34:43.264Z,12.10
2018-04-17T06:37:10.744Z,12.10
2018-04-17T06:39:38.989Z,12.20
2018-04-17T06:42:07.099Z,12.20
2018-04-17T06:44:35.335Z,12.10
2018-04-17T06:47:02.843Z,12.10
2018-04-17T06:49:30.342Z,12.20
2018-04-17T06:51:57.807Z,12.40
2018-04-17T06:54:25.279Z,12.50
2018-04-17T06:56:53.590Z,12.50
2018-04-17T06:59:21.083Z,12.50
2018-04-17T07:01:48.545Z,12.70
2018-04-17T07:04:16.056Z,12.70
2018-04-17T07:06:43.526Z,12.90
2018-04-17T07:09:11.011Z,13.00
2018-04-17T07:11:38.627Z,13.10
2018-04-17T07:14:06.062Z,13.20
2018-04-17T07:16:34.332Z,13.40
2018-04-17T07:19:01.842Z,13.40
2018-04-17T07:21:29.327Z,13.40
2018-04-17T07:23:56.943Z,13.60
2018-04-17T07:26:24.412Z,13.70
2018-04-17T07:28:51.895Z,13.80
2018-04-17T07:31:19.393Z,13.90
2018-04-17T07:33:47.717Z,14.00
2018-04-17T07:36:15.187Z,14.00
2018-04-17T07:38:42.695Z,14.10
2018-04-17T07:41:10.196Z,14.30
2018-04-17T07:43:37.705Z,14.40
2018-04-17T07:46:05.991Z,14.70
2018-04-17T07:48:45.563Z,14.70
2018-04-17T07:51:13.032Z,14.90
2018-04-17T07:53:40.510Z,15.00
2018-04-17T07:56:07.989Z,15.10
2018-04-17T07:58:36.239Z,15.30
2018-04-17T08:01:03.750Z,15.30
2018-04-17T08:03:31.229Z,15.30
2018-04-17T08:05:58.734Z,15.40
2018-04-17T08:08:27.012Z,15.60
2018-04-17T08:10:55.243Z,15.70
2018-04-17T08:13:22.733Z,15.60
2018-04-17T08:15:50.999Z,15.80
2018-04-17T08:18:19.262Z,15.90
2018-04-17T08:20:46.765Z,15.90
2018-04-17T08:23:15.005Z,16.10
2018-04-17T08:25:42.496Z,16.00
2018-04-17T08:28:10.737Z,16.30
2018-04-17T08:30:38.244Z,16.20
2018-04-17T08:33:05.720Z,16.30
2018-04-17T08:35:33.199Z,16.40
2018-04-17T08:38:00.677Z,16.50
2018-04-17T08:40:28.195Z,16.50
2018-04-17T08:42:55.679Z,16.50
2018-04-17T08:45:23.168Z,16.60
2018-04-17T08:47:51.444Z,16.60
2018-04-17T08:50:19.686Z,16.70
2018-04-17T08:52:47.282Z,16.70
2018-04-17T08:55:15.530Z,17.00
2018-04-17T08:57:43.010Z,17.00
2018-04-17T09:00:11.271Z,17.20
2018-04-17T09:02:38.783Z,17.20
2018-04-17T09:05:06.280Z,17.20
2018-04-17T09:07:33.737Z,17.20
2018-04-17T09:10:01.988Z,17.40
2018-04-17T09:12:29.468Z,17.30
2018-04-17T09:14:57.007Z,17.40
2018-04-17T09:17:24.479Z,17.50
2018-04-17T09:19:52.793Z,17.50
2018-04-17T09:22:21.250Z,17.60
2018-04-17T09:24:50.264Z,17.60
2018-04-17T09:27:18.541Z,17.70
2018-04-17T09:29:46.810Z,17.80
2018-04-17T09:32:15.060Z,17.90
2018-04-17T09:34:42.540Z,17.90
2018-04-17T09:37:10.038Z,18.00
2018-04-17T09:39:37.528Z,18.00
2018-04-17T09:42:06.582Z,18.10
2018-04-17T09:44:34.076Z,18.10
2018-04-17T09:47:01.600Z,18.20
2018-04-17T09:49:29.237Z,18.20
2018-04-17T09:51:57.470Z,18.30
2018-04-17T09:54:24.957Z,18.40
2018-04-17T09:56:53.195Z,18.50
2018-04-17T09:59:20.704Z,18.50
2018-04-17T10:01:48.247Z,18.60
2018-04-17T10:04:16.522Z,18.70
2018-04-17T10:06:44.765Z,18.70
2018-04-17T10:09:12.310Z,18.70
2018-04-17T10:11:39.736Z,18.80
2018-04-17T10:14:07.249Z,18.90
2018-04-17T10:16:35.503Z,18.90
2018-04-17T10:19:02.992Z,18.90
2018-04-17T10:21:31.265Z,19.10
2018-04-17T10:23:59.557Z,19.10
2018-04-17T10:26:27.807Z,19.10
2018-04-17T10:28:55.268Z,19.00
2018-04-17T10:31:22.838Z,19.10
2018-04-17T10:33:50.333Z,19.20
2018-04-17T10:36:17.832Z,19.20
2018-04-17T10:38:45.311Z,19.40
2018-04-17T10:41:12.803Z,19.50
2018-04-17T10:43:40.327Z,19.50
2018-04-17T10:46:08.576Z,19.60
2018-04-17T10:48:36.052Z,19.60
2018-04-17T10:51:03.656Z,19.60
2018-04-17T10:53:31.124Z,19.70
2018-04-17T10:55:58.613Z,19.90
2018-04-17T10:58:26.091Z,19.90
2018-04-17T11:00:53.586Z,19.90
2018-04-17T11:03:21.088Z,19.90
2018-04-17T11:05:48.556Z,20.10
2018-04-17T11:08:16.022Z,20.10
2018-04-17T11:10:43.533Z,20.10
2018-04-17T11:13:11.019Z,20.10
2018-04-17T11:15:38.499Z,20.10
2018-04-17T11:18:06.769Z,20.30
2018-04-17T11:20:34.243Z,20.20
2018-04-17T11:23:02.473Z,20.50
2018-04-17T11:25:29.955Z,20.50
2018-04-17T11:27:57.442Z,20.50
2018-04-17T11:30:25.686Z,20.60
2018-04-17T11:32:53.148Z,20.50
2018-04-17T11:35:20.678Z,20.70
2018-04-17T11:37:48.197Z,20.80
2018-04-17T11:40:15.695Z,20.80
2018-04-17T11:42:43.159Z,20.90
2018-04-17T11:45:10.756Z,20.90
2018-04-17T11:47:38.980Z,20.90
2018-04-17T11:50:06.481Z,20.90
2018-04-17T11:52:34.736Z,20.80
2018-04-17T11:55:02.226Z,20.80
2018-04-17T11:57:30.493Z,20.90
2018-04-17T11:59:58.752Z,21.00
2018-04-17T12:02:26.345Z,20.90
2018-04-17T12:04:53.869Z,21.20
2018-04-17T12:07:21.333Z,21.20
2018-04-17T12:09:48.839Z,21.40
2018-04-17T12:12:16.345Z,21.50
2018-04-17T12:14:43.844Z,21.60
2018-04-17T12:17:11.305Z,21.60
2018-04-17T12:19:38.789Z,21.60
2018-04-17T12:22:06.256Z,21.70
2018-04-17T12:24:33.840Z,21.40
2018-04-17T12:27:01.318Z,21.60
2018-04-17T12:29:28.803Z,21.50
2018-04-17T12:31:56.265Z,21.50
2018-04-17T12:34:23.742Z,21.60
2018-04-17T12:36:51.215Z,21.60
2018-04-17T12:39:18.689Z,21.50
2018-04-17T12:41:46.949Z,21.70
2018-04-17T12:44:15.203Z,22.00
2018-04-17T12:46:42.704Z,21.90
2018-04-17T12:49:10.948Z,21.90
2018-04-17T12:51:38.439Z,21.90
2018-04-17T12:54:06.706Z,22.00
2018-04-17T12:56:34.949Z,21.80
2018-04-17T12:59:02.471Z,21.70
2018-04-17T13:01:30.011Z,22.20
2018-04-17T13:03:58.239Z,22.50
2018-04-17T13:06:25.736Z,22.50
2018-04-17T13:08:53.976Z,22.80
2018-04-17T13:11:21.464Z,22.70
2018-04-17T13:13:49.696Z,23.30
2018-04-17T13:16:17.207Z,23.30
2018-04-17T13:18:45.454Z,23.80
2018-04-17T13:21:12.939Z,23.70
2018-04-17T13:23:41.185Z,23.90
2018-04-17T13:26:08.683Z,23.90
2018-04-17T13:28:36.147Z,24.10
2018-04-17T13:31:03.717Z,23.90
2018-04-17T13:33:31.246Z,24.20
2018-04-17T13:35:59.489Z,24.40
2018-04-17T13:38:26.974Z,24.30
2018-04-17T13:40:55.220Z,25.00
2018-04-17T13:43:22.697Z,25.00
2018-04-17T13:45:50.212Z,25.20
2018-04-17T13:48:17.671Z,25.60
2018-04-17T13:50:45.147Z,25.80
2018-04-17T13:53:12.623Z,26.20
2018-04-17T13:55:40.099Z,26.40
2018-04-17T13:58:08.644Z,27.30
2018-04-17T14:00:36.142Z,27.30
2018-04-17T14:03:04.363Z,27.40
2018-04-17T14:05:31.878Z,27.40
2018-04-17T14:08:00.108Z,27.10
2018-04-17T14:10:27.603Z,27.10
2018-04-17T14:12:55.854Z,27.00
2018-04-17T14:15:23.335Z,27.10
2018-04-17T14:17:51.584Z,28.00
2018-04-17T14:20:19.110Z,28.00
2018-04-17T14:22:46.590Z,27.60
2018-04-17T14:25:14.068Z,27.50
2018-04-17T14:27:41.548Z,27.40
2018-04-17T14:30:09.828Z,27.70
2018-04-17T14:32:37.405Z,27.80
2018-04-17T14:35:04.881Z,28.70
2018-04-17T14:37:32.371Z,28.90
2018-04-17T14:39:59.865Z,29.40
2018-04-17T14:42:27.329Z,29.80
2018-04-17T14:44:54.893Z,29.70
2018-04-17T14:47:22.411Z,29.30
2018-04-17T14:49:50.682Z,29.50
2018-04-17T14:52:18.180Z,29.50
2018-04-17T14:54:45.693Z,29.60
2018-04-17T14:57:13.248Z,30.10
2018-04-17T14:59:40.711Z,30.10
2018-04-17T15:02:08.270Z,30.10
2018-04-17T15:04:35.735Z,30.00
2018-04-17T15:07:03.228Z,30.00
2018-04-17T15:09:30.688Z,30.10
2018-04-17T15:11:58.184Z,30.90
2018-04-17T15:14:25.642Z,31.20
2018-04-17T15:16:53.145Z,31.40
2018-04-17T15:19:20.612Z,32.20
2018-04-17T15:21:48.095Z,32.80
2018-04-17T15:24:15.562Z,32.30
2018-04-17T15:26:43.048Z,34.30
2018-04-17T15:29:10.511Z,34.40
2018-04-17T15:31:38.765Z,34.10
2018-04-17T15:34:06.228Z,34.10
2018-04-17T15:36:33.712Z,34.10
2018-04-17T15:39:01.944Z,33.30
2018-04-17T15:41:29.535Z,33.30
2018-04-17T15:43:57.808Z,34.30
2018-04-17T15:46:25.299Z,34.30
2018-04-17T15:48:52.934Z,34.80
2018-04-17T15:51:21.200Z,33.80
2018-04-17T15:53:48.687Z,33.80
2018-04-17T15:56:16.189Z,33.00
2018-04-17T15:58:43.659Z,33.20
2018-04-17T16:01:11.139Z,33.50
2018-04-17T16:03:39.373Z,33.50
2018-04-17T16:06:06.859Z,33.50
2018-04-17T16:08:34.367Z,33.60
2018-04-17T16:11:01.855Z,33.10
2018-04-17T16:13:29.331Z,31.70
2018-04-17T16:15:56.833Z,31.70
2018-04-17T16:18:24.337Z,30.60
2018-04-17T16:20:51.919Z,29.90
2018-04-17T16:23:20.163Z,28.50
2018-04-17T16:25:47.635Z,28.50
2018-04-17T16:28:15.091Z,28.10
2018-04-17T16:30:42.819Z,27.80
2018-04-17T16:33:10.288Z,27.80
2018-04-17T16:35:37.783Z,27.30
2018-04-17T16:38:06.016Z,26.90
2018-04-17T16:40:33.523Z,26.90
2018-04-17T16:43:01.749Z,26.80
2018-04-17T16:45:29.228Z,26.80
2018-04-17T16:47:56.699Z,26.50
2018-04-17T16:50:24.963Z,25.90
2018-04-17T16:52:52.456Z,25.90
2018-04-17T16:55:19.917Z,25.90
2018-04-17T16:57:48.184Z,25.50
2018-04-17T17:00:16.419Z,25.50
2018-04-17T17:02:43.902Z,25.50
2018-04-17T17:05:11.373Z,25.30
2018-04-17T17:07:39.625Z,25.30
2018-04-17T17:10:07.105Z,25.30
2018-04-17T17:12:35.359Z,25.10
2018-04-17T17:15:02.862Z,25.10
2018-04-17T17:17:30.339Z,24.90
2018-04-17T17:19:57.802Z,24.80
2018-04-17T17:22:25.296Z,24.80
2018-04-17T17:24:52.789Z,24.60
2018-04-17T17:27:20.288Z,24.60
2018-04-17T17:29:47.809Z,24.40
2018-04-17T17:32:15.318Z,24.60
2018-04-17T17:34:42.891Z,24.40
2018-04-17T17:37:11.147Z,24.20
2018-04-17T17:39:39.432Z,24.20
2018-04-17T17:42:06.938Z,24.10
2018-04-17T17:44:34.395Z,24.10
2018-04-17T17:47:01.909Z,24.00
2018-04-17T17:49:30.156Z,23.70
2018-04-17T17:51:57.656Z,23.70
2018-04-17T17:54:25.919Z,23.70
2018-04-17T17:56:53.407Z,23.70
2018-04-17T17:59:20.879Z,23.50
2018-04-17T18:01:48.386Z,23.50
2018-04-17T18:04:15.863Z,23.40
2018-04-17T18:06:44.116Z,23.20
2018-04-17T18:09:11.598Z,23.20
2018-04-17T18:11:39.966Z,22.90
2018-04-17T18:14:08.211Z,22.80
2018-04-17T18:16:35.699Z,22.80
2018-04-17T18:19:03.159Z,22.80
2018-04-17T18:21:31.407Z,22.60
2018-04-17T18:23:58.905Z,22.60
2018-04-17T18:26:26.418Z,22.60
2018-04-17T18:28:53.886Z,22.50
2018-04-17T18:31:21.365Z,22.40
2018-04-17T18:33:49.613Z,22.30
2018-04-17T18:36:17.092Z,22.20
2018-04-17T18:38:45.535Z,22.00
2018-04-17T18:41:13.051Z,22.00
2018-04-17T18:43:40.596Z,22.00
2018-04-17T18:46:08.840Z,21.80
2018-04-17T18:48:36.313Z,21.80
2018-04-17T18:51:03.815Z,21.80
2018-04-17T18:53:31.298Z,21.80
2018-04-17T18:55:58.787Z,21.70
2018-04-17T18:58:26.387Z,21.60
2018-04-17T19:00:53.851Z,21.50
2018-04-17T19:03:21.408Z,21.50
2018-04-17T19:05:48.949Z,21.40
2018-04-17T19:08:16.429Z,21.30
2018-04-17T19:10:43.904Z,21.30
2018-04-17T19:13:11.401Z,21.30
2018-04-17T19:15:39.639Z,21.10
2018-04-17T19:18:07.291Z,21.10
2018-04-17T19:20:34.830Z,21.00
2018-04-17T19:23:02.339Z,20.90
2018-04-17T19:25:29.807Z,20.80
2018-04-17T19:27:58.138Z,20.70
2018-04-17T19:30:25.620Z,20.70
2018-04-17T19:32:53.134Z,20.70
2018-04-17T19:35:20.599Z,20.60
2018-04-17T19:37:48.127Z,20.50
2018-04-17T19:40:16.410Z,20.40
2018-04-17T19:42:43.919Z,20.30
2018-04-17T19:45:11.405Z,20.30
2018-04-17T19:47:38.912Z,20.20
2018-04-17T19:50:06.372Z,20.20
2018-04-17T19:52:33.858Z,20.20
2018-04-17T19:55:01.317Z,20.10
2018-04-17T19:57:28.835Z,20.10
2018-04-17T19:59:56.303Z,20.00
2018-04-17T20:02:23.848Z,20.00
2018-04-17T20:04:51.410Z,19.90
2018-04-17T20:07:18.889Z,19.80
2018-04-17T20:09:46.409Z,19.70
2018-04-17T20:12:13.949Z,19.70
2018-04-17T20:14:42.263Z,19.50
2018-04-17T20:17:10.525Z,19.50
2018-04-17T20:19:38.068Z,19.40
2018-04-17T20:22:06.310Z,19.40
2018-04-17T20:24:33.793Z,19.40
2018-04-17T20:27:02.075Z,19.30
2018-04-17T20:29:30.390Z,19.20
2018-04-17T20:31:57.891Z,19.20
2018-04-17T20:34:25.401Z,19.10
2018-04-17T20:36:52.904Z,19.00
2018-04-17T20:39:20.385Z,19.00
2018-04-17T20:41:48.788Z,18.90
2018-04-17T20:44:16.279Z,18.90
2018-04-17T20:46:43.813Z,18.80
2018-04-17T20:49:11.290Z,18.80
2018-04-17T20:51:38.773Z,18.70
2018-04-17T20:54:06.276Z,18.70
2018-04-17T20:56:33.761Z,18.60
2018-04-17T20:59:01.292Z,18.60
2018-04-17T21:01:28.781Z,18.40
2018-04-17T21:03:56.263Z,18.40
2018-04-17T21:06:23.941Z,18.40
2018-04-17T21:08:52.215Z,18.20
2018-04-17T21:11:20.449Z,18.30
2018-04-17T21:13:47.941Z,18.20
2018-04-17T21:16:16.260Z,18.10
2018-04-17T21:18:43.743Z,18.10
2018-04-17T21:21:11.212Z,18.10
2018-04-17T21:23:38.693Z,18.00
2018-04-17T21:26:06.988Z,17.90
2018-04-17T21:28:34.555Z,17.80
2018-04-17T21:31:02.096Z,17.90
2018-04-17T21:33:30.363Z,17.70
2018-04-17T21:35:58.609Z,17.70
2018-04-17T21:38:26.091Z,17.70
2018-04-17T21:40:53.555Z,17.70
2018-04-17T21:43:21.831Z,17.60
2018-04-17T21:45:50.080Z,17.50
2018-04-17T21:48:17.562Z,17.50
2018-04-17T21:50:45.818Z,17.40
2018-04-17T21:53:14.807Z,17.40
2018-04-17T21:55:43.858Z,17.30
2018-04-17T21:58:11.387Z,17.20
2018-04-17T22:00:38.832Z,17.20
2018-04-17T22:03:06.432Z,17.20
2018-04-17T22:08:01.630Z,17.10
2018-04-17T22:10:30.034Z,17.10
2018-04-17T22:12:57.534Z,17.00
2018-04-17T22:15:25.041Z,17.00
2018-04-17T22:17:52.523Z,17.00
2018-04-17T22:20:20.014Z,16.90
2018-04-17T22:22:47.517Z,16.90
2018-04-17T22:25:15.027Z,16.90
2018-04-17T22:27:42.540Z,16.90
2018-04-17T22:30:10.004Z,16.90
2018-04-17T22:32:37.508Z,16.80
2018-04-17T22:35:05.782Z,16.70
2018-04-17T22:37:33.297Z,16.60
2018-04-17T22:40:00.775Z,16.60
2018-04-17T22:42:28.341Z,16.60
2018-04-17T22:44:55.831Z,16.50
2018-04-17T22:47:24.127Z,16.50
2018-04-17T22:49:51.591Z,16.50
2018-04-17T22:52:19.134Z,16.50
2018-04-17T22:54:47.399Z,16.40
2018-04-17T22:57:15.659Z,16.30
2018-04-17T22:59:43.199Z,16.30
2018-04-17T23:02:10.723Z,16.30
2018-04-17T23:04:38.284Z,16.20
2018-04-17T23:07:05.840Z,16.20
2018-04-17T23:09:33.335Z,16.10
2018-04-17T23:12:00.864Z,16.10
2018-04-17T23:14:28.380Z,16.00
2018-04-17T23:16:56.629Z,15.80
2018-04-17T23:19:24.133Z,15.80
2018-04-17T23:21:51.669Z,15.90
2018-04-17T23:24:19.937Z,15.90
2018-04-17T23:26:47.482Z,15.80
2018-04-17T23:29:15.817Z,15.70
2018-04-17T23:31:43.317Z,15.70
2018-04-17T23:34:10.843Z,15.60
2018-04-17T23:36:38.345Z,15.60
2018-04-17T23:39:05.862Z,15.60
2018-04-17T23:41:33.354Z,15.50
2018-04-17T23:44:00.847Z,15.40
2018-04-17T23:46:29.387Z,15.30
2018-04-17T23:48:56.954Z,15.20
2018-04-17T23:51:24.437Z,15.20
2018-04-17T23:53:52.732Z,15.10
2018-04-17T23:56:20.218Z,15.10
2018-04-17T23:58:47.732Z,15.10
